createdAt,value
2019-04-04T00:02:17.109Z,94269.31
2019-04-04T00:04:44.137Z,94274.78
2019-04-04T00:07:10.295Z,94278.79
2019-04-04T00:09:36.484Z,94275.33
2019-04-04T00:12:02.883Z,94283.08
2019-04-04T00:14:29.140Z,94279.20
2019-04-04T00:16:55.337Z,94283.78
2019-04-04T00:19:21.553Z,94279.44
2019-04-04T00:21:47.703Z,94279.23
2019-04-04T00:24:14.082Z,94280.05
2019-04-04T00:26:42.019Z,94278.64
2019-04-04T00:29:09.034Z,94286.06
2019-04-04T00:31:35.195Z,94278.02
2019-04-04T00:34:01.407Z,94275.28
2019-04-04T00:36:27.553Z,94270.62
2019-04-04T00:38:53.879Z,94267.88
2019-04-04T00:41:20.004Z,94273.16
2019-04-04T00:43:46.267Z,94270.81
2019-04-04T00:46:12.437Z,94268.48
2019-04-04T00:48:38.664Z,94273.55
2019-04-04T00:51:07.606Z,94273.37
2019-04-04T00:53:33.217Z,94274.77
2019-04-04T00:55:59.336Z,94266.12
2019-04-04T00:58:25.555Z,94267.27
2019-04-04T01:00:52.943Z,94267.05
2019-04-04T01:03:19.804Z,94268.47
2019-04-04T01:05:45.910Z,94258.81
2019-04-04T01:08:12.135Z,94267.64
2019-04-04T01:10:38.254Z,94262.08
2019-04-04T01:13:04.719Z,94265.30
2019-04-04T01:15:31.110Z,94266.33
2019-04-04T01:17:58.169Z,94256.89
2019-04-04T01:20:24.366Z,94264.00
2019-04-04T01:22:51.698Z,94269.08
2019-04-04T01:25:17.865Z,94276.30
2019-04-04T01:27:44.044Z,94281.58
2019-04-04T01:30:12.514Z,94287.46
2019-04-04T01:32:38.435Z,94292.63
2019-04-04T01:35:06.414Z,94301.94
2019-04-04T01:37:33.812Z,94299.17
2019-04-04T01:40:02.068Z,94298.64
2019-04-04T01:42:28.160Z,94301.58
2019-04-04T01:44:54.313Z,94311.00
2019-04-04T01:47:20.565Z,94309.26
2019-04-04T01:49:46.683Z,94315.42
2019-04-04T01:52:12.888Z,94320.79
2019-04-04T01:54:39.103Z,94326.66
2019-04-04T01:57:07.820Z,94327.83
2019-04-04T01:59:33.464Z,94326.17
2019-04-04T02:01:59.647Z,94333.34
2019-04-04T02:04:25.863Z,94329.97
2019-04-04T02:06:52.027Z,94325.28
2019-04-04T02:09:18.284Z,94338.41
2019-04-04T02:11:44.442Z,94330.45
2019-04-04T02:14:11.898Z,94325.95
2019-04-04T02:16:38.783Z,94325.69
2019-04-04T02:19:05.075Z,94319.73
2019-04-04T02:21:31.271Z,94323.52
2019-04-04T02:23:57.463Z,94326.50
2019-04-04T02:26:23.937Z,94325.30
2019-04-04T02:28:50.295Z,94323.13
2019-04-04T02:31:20.606Z,94318.17
2019-04-04T02:33:45.336Z,94322.02
2019-04-04T02:36:16.166Z,94326.34
2019-04-04T02:38:39.716Z,94337.73
2019-04-04T02:41:05.977Z,94342.62
2019-04-04T02:43:32.257Z,94338.86
2019-04-04T02:45:59.616Z,94345.25
2019-04-04T02:48:25.814Z,94344.38
2019-04-04T02:50:51.973Z,94349.89
2019-04-04T02:53:20.313Z,94354.21
2019-04-04T02:55:46.201Z,94345.95
2019-04-04T02:58:15.053Z,94348.02
2019-04-04T03:00:40.475Z,94350.89
2019-04-04T03:03:09.154Z,94362.05
2019-04-04T03:05:34.971Z,94373.97
2019-04-04T03:08:04.235Z,94364.42
2019-04-04T03:10:29.499Z,94365.74
2019-04-04T03:12:58.692Z,94347.08
2019-04-04T03:15:23.893Z,94352.57
2019-04-04T03:17:50.155Z,94362.61
2019-04-04T03:20:17.466Z,94355.46
2019-04-04T03:22:44.074Z,94355.38
2019-04-04T03:25:14.454Z,94350.38
2019-04-04T03:27:38.516Z,94355.45
2019-04-04T03:30:13.548Z,94360.84
2019-04-04T03:32:34.358Z,94348.20
2019-04-04T03:35:00.728Z,94344.02
2019-04-04T03:37:26.873Z,94327.05
2019-04-04T03:39:53.537Z,94320.14
2019-04-04T03:42:19.786Z,94314.65
2019-04-04T03:44:46.003Z,94313.08
2019-04-04T03:47:12.111Z,94310.22
2019-04-04T03:49:38.360Z,94304.89
2019-04-04T03:52:04.709Z,94308.03
2019-04-04T03:54:30.845Z,94302.09
2019-04-04T03:56:57.074Z,94298.97
2019-04-04T03:59:23.227Z,94301.22
2019-04-04T04:01:49.730Z,94304.95
2019-04-04T04:04:15.894Z,94307.23
2019-04-04T04:06:43.076Z,94307.61
2019-04-04T04:09:09.423Z,94294.38
2019-04-04T04:11:37.499Z,94289.56
2019-04-04T04:14:03.717Z,94291.24
2019-04-04T04:16:29.881Z,94284.55
2019-04-04T04:18:56.038Z,94279.84
2019-04-04T04:21:22.188Z,94284.37
2019-04-04T04:23:50.022Z,94287.91
2019-04-04T04:26:16.628Z,94288.30
2019-04-04T04:28:42.845Z,94292.00
2019-04-04T04:31:09.044Z,94290.97
2019-04-04T04:33:35.208Z,94284.30
2019-04-04T04:36:01.359Z,94277.80
2019-04-04T04:38:27.536Z,94277.37
2019-04-04T04:40:53.741Z,94282.66
2019-04-04T04:43:19.855Z,94274.19
2019-04-04T04:45:46.160Z,94268.64
2019-04-04T04:48:12.261Z,94274.23
2019-04-04T04:50:40.465Z,94270.91
2019-04-04T04:53:06.466Z,94276.59
2019-04-04T04:55:32.741Z,94270.09
2019-04-04T04:57:58.898Z,94269.34
2019-04-04T05:00:27.789Z,94254.31
2019-04-04T05:02:53.803Z,94253.00
2019-04-04T05:05:20.030Z,94255.94
2019-04-04T05:07:46.270Z,94241.16
2019-04-04T05:10:12.959Z,94225.25
2019-04-04T05:12:41.318Z,94230.94
2019-04-04T05:15:07.696Z,94235.83
2019-04-04T05:17:33.946Z,94238.23
2019-04-04T05:20:00.242Z,94239.88
2019-04-04T05:22:26.478Z,94233.46
2019-04-04T05:25:07.109Z,94223.93
2019-04-04T05:27:20.949Z,94228.51
2019-04-04T05:29:47.634Z,94228.95
2019-04-04T05:32:13.852Z,94225.48
2019-04-04T05:34:40.193Z,94228.41
2019-04-04T05:37:07.275Z,94222.27
2019-04-04T05:39:35.233Z,94216.92
2019-04-04T05:42:01.310Z,94217.03
2019-04-04T05:44:27.530Z,94213.69
2019-04-04T05:46:53.618Z,94206.41
2019-04-04T05:49:19.842Z,94214.04
2019-04-04T05:51:46.315Z,94220.24
2019-04-04T05:54:14.132Z,94212.00
2019-04-04T05:56:40.220Z,94211.95
2019-04-04T05:59:06.942Z,94207.90
2019-04-04T06:01:35.325Z,94205.95
2019-04-04T06:04:03.821Z,94208.91
2019-04-04T06:06:31.168Z,94212.20
2019-04-04T06:08:58.434Z,94204.15
2019-04-04T06:11:24.731Z,94202.97
2019-04-04T06:13:50.838Z,94186.56
2019-04-04T06:16:17.040Z,94183.56
2019-04-04T06:18:43.638Z,94184.49
2019-04-04T06:21:09.872Z,94178.73
2019-04-04T06:23:36.024Z,94173.92
2019-04-04T06:26:06.336Z,94175.17
2019-04-04T06:28:30.457Z,94179.83
2019-04-04T06:30:56.624Z,94176.95
2019-04-04T06:33:23.928Z,94175.89
2019-04-04T06:35:50.142Z,94167.55
2019-04-04T06:38:17.315Z,94170.94
2019-04-04T06:40:43.514Z,94163.66
2019-04-04T06:43:11.524Z,94171.63
2019-04-04T06:45:37.731Z,94167.09
2019-04-04T06:48:04.046Z,94170.94
2019-04-04T06:50:30.189Z,94163.13
2019-04-04T06:52:56.772Z,94164.45
2019-04-04T06:55:23.105Z,94161.81
2019-04-04T06:57:51.251Z,94158.28
2019-04-04T07:00:17.901Z,94158.48
2019-04-04T07:02:44.062Z,94158.61
2019-04-04T07:05:10.975Z,94150.50
2019-04-04T07:07:37.327Z,94156.36
2019-04-04T07:10:04.331Z,94165.72
2019-04-04T07:12:31.575Z,94162.87
2019-04-04T07:14:57.802Z,94167.73
2019-04-04T07:17:24.246Z,94165.22
2019-04-04T07:19:50.568Z,94170.80
2019-04-04T07:22:16.675Z,94172.34
2019-04-04T07:24:42.883Z,94165.34
2019-04-04T07:27:09.025Z,94169.52
2019-04-04T07:29:35.216Z,94159.86
2019-04-04T07:32:01.311Z,94162.17
2019-04-04T07:34:27.528Z,94160.98
2019-04-04T07:36:53.653Z,94165.44
2019-04-04T07:39:19.889Z,94156.18
2019-04-04T07:41:45.984Z,94151.39
2019-04-04T07:44:12.246Z,94157.76
2019-04-04T07:46:40.910Z,94152.34
2019-04-04T07:49:06.477Z,94141.86
2019-04-04T07:51:32.652Z,94146.02
2019-04-04T07:53:58.830Z,94134.50
2019-04-04T07:56:25.083Z,94135.73
2019-04-04T07:58:51.227Z,94130.39
2019-04-04T08:01:17.540Z,94133.52
2019-04-04T08:03:43.630Z,94141.43
2019-04-04T08:06:09.833Z,94141.29
2019-04-04T08:08:35.995Z,94144.91
2019-04-04T08:11:02.459Z,94138.44
2019-04-04T08:13:28.722Z,94125.25
2019-04-04T08:15:56.369Z,94134.84
2019-04-04T08:18:22.654Z,94132.86
2019-04-04T08:20:48.857Z,94117.52
2019-04-04T08:23:15.195Z,94112.59
2019-04-04T08:25:41.332Z,94123.52
2019-04-04T08:28:07.568Z,94118.80
2019-04-04T08:30:33.833Z,94113.15
2019-04-04T08:33:00.111Z,94112.91
2019-04-04T08:35:26.210Z,94109.78
2019-04-04T08:37:52.517Z,94105.17
2019-04-04T08:40:18.780Z,94111.55
2019-04-04T08:42:44.990Z,94118.80
2019-04-04T08:45:12.361Z,94122.83
2019-04-04T08:47:38.574Z,94125.41
2019-04-04T08:50:05.338Z,94122.58
2019-04-04T08:52:31.578Z,94116.33
2019-04-04T08:54:57.920Z,94116.95
2019-04-04T08:57:24.398Z,94114.06
2019-04-04T08:59:50.582Z,94115.63
2019-04-04T09:02:16.836Z,94107.41
2019-04-04T09:04:43.006Z,94113.55
2019-04-04T09:07:09.099Z,94107.56
2019-04-04T09:09:35.331Z,94101.83
2019-04-04T09:12:01.682Z,94096.48
2019-04-04T09:14:27.854Z,94095.35
2019-04-04T09:16:54.143Z,94103.88
2019-04-04T09:19:20.420Z,94099.95
2019-04-04T09:21:46.639Z,94096.85
2019-04-04T09:24:13.412Z,94086.74
2019-04-04T09:26:39.754Z,94084.80
2019-04-04T09:29:05.850Z,94080.95
2019-04-04T09:31:32.039Z,94077.73
2019-04-04T09:33:58.127Z,94082.51
2019-04-04T09:36:24.724Z,94076.34
2019-04-04T09:38:51.888Z,94068.17
2019-04-04T09:41:18.209Z,94061.06
2019-04-04T09:43:45.402Z,94060.94
2019-04-04T09:46:11.594Z,94060.34
2019-04-04T09:48:37.732Z,94048.18
2019-04-04T09:51:03.895Z,94045.31
2019-04-04T09:53:30.060Z,94049.19
2019-04-04T09:55:56.299Z,94046.30
2019-04-04T09:58:22.408Z,94049.56
2019-04-04T10:00:49.830Z,94037.10
2019-04-04T10:03:15.987Z,94048.45
2019-04-04T10:05:42.133Z,94052.48
2019-04-04T10:08:08.475Z,94057.13
2019-04-04T10:10:34.762Z,94059.77
2019-04-04T10:13:00.926Z,94059.77
2019-04-04T10:15:27.208Z,94064.35
2019-04-04T10:17:53.383Z,94063.81
2019-04-04T10:20:19.523Z,94065.67
2019-04-04T10:22:45.732Z,94057.83
2019-04-04T10:25:12.174Z,94052.42
2019-04-04T10:27:38.368Z,94052.39
2019-04-04T10:30:08.113Z,94049.75
2019-04-04T10:32:34.478Z,94047.64
2019-04-04T10:35:00.879Z,94050.29
2019-04-04T10:37:27.156Z,94043.52
2019-04-04T10:39:53.640Z,94052.47
2019-04-04T10:42:19.851Z,94049.02
2019-04-04T10:44:47.261Z,94051.81
2019-04-04T10:47:13.451Z,94053.32
2019-04-04T10:49:39.666Z,94065.20
2019-04-04T10:52:05.922Z,94065.67
2019-04-04T10:54:32.140Z,94072.02
2019-04-04T10:56:58.396Z,94071.91
2019-04-04T10:59:24.771Z,94068.28
2019-04-04T11:01:50.927Z,94063.92
2019-04-04T11:04:17.114Z,94067.21
2019-04-04T11:06:43.279Z,94065.44
2019-04-04T11:09:09.664Z,94059.30
2019-04-04T11:11:36.036Z,94062.17
2019-04-04T11:14:02.431Z,94058.77
2019-04-04T11:16:30.402Z,94060.77
2019-04-04T11:18:56.644Z,94059.09
2019-04-04T11:21:23.008Z,94064.42
2019-04-04T11:23:49.263Z,94074.86
2019-04-04T11:26:15.522Z,94057.59
2019-04-04T11:28:41.796Z,94066.91
2019-04-04T11:31:08.161Z,94067.47
2019-04-04T11:33:34.465Z,94067.20
2019-04-04T11:36:00.641Z,94070.37
2019-04-04T11:38:26.954Z,94074.52
2019-04-04T11:40:53.132Z,94069.53
2019-04-04T11:43:19.323Z,94079.38
2019-04-04T11:45:45.481Z,94064.98
2019-04-04T11:48:11.659Z,94058.64
2019-04-04T11:50:39.747Z,94056.19
2019-04-04T11:53:05.863Z,94064.18
2019-04-04T11:55:32.026Z,94060.55
2019-04-04T11:57:58.301Z,94049.60
2019-04-04T12:00:26.419Z,94054.86
2019-04-04T12:02:52.563Z,94052.66
2019-04-04T12:05:18.812Z,94056.09
2019-04-04T12:07:44.918Z,94057.07
2019-04-04T12:10:11.518Z,94054.63
2019-04-04T12:12:37.828Z,94056.41
2019-04-04T12:15:05.834Z,94051.56
2019-04-04T12:17:32.210Z,94047.31
2019-04-04T12:19:58.439Z,94048.79
2019-04-04T12:22:24.827Z,94049.25
2019-04-04T12:24:51.285Z,94048.75
2019-04-04T12:27:17.458Z,94045.47
2019-04-04T12:29:43.734Z,94048.45
2019-04-04T12:32:10.369Z,94047.17
2019-04-04T12:34:36.813Z,94046.88
2019-04-04T12:37:03.164Z,94055.94
2019-04-04T12:39:29.431Z,94057.75
2019-04-04T12:41:55.624Z,94052.48
2019-04-04T12:44:21.753Z,94055.66
2019-04-04T12:46:48.115Z,94045.84
2019-04-04T12:49:14.288Z,94029.10
2019-04-04T12:51:40.527Z,94026.89
2019-04-04T12:54:06.874Z,94017.02
2019-04-04T12:56:33.139Z,94028.10
2019-04-04T12:58:59.343Z,94021.66
2019-04-04T13:01:25.447Z,94017.67
2019-04-04T13:03:51.681Z,94017.16
2019-04-04T13:06:18.774Z,94017.45
2019-04-04T13:08:44.997Z,94027.69
2019-04-04T13:11:11.162Z,94017.06
2019-04-04T13:13:38.360Z,94016.41
2019-04-04T13:16:05.743Z,94015.03
2019-04-04T13:18:32.020Z,94011.22
2019-04-04T13:20:58.332Z,94010.48
2019-04-04T13:23:24.659Z,94014.84
2019-04-04T13:25:50.872Z,94017.98
2019-04-04T13:28:17.037Z,94019.01
2019-04-04T13:30:43.198Z,94015.63
2019-04-04T13:33:09.365Z,94012.56
2019-04-04T13:35:37.560Z,94004.09
2019-04-04T13:38:03.988Z,94009.23
2019-04-04T13:40:30.181Z,94013.41
2019-04-04T13:42:56.405Z,94007.52
2019-04-04T13:45:24.756Z,94004.47
2019-04-04T13:47:50.630Z,93999.86
2019-04-04T13:50:20.450Z,93999.75
2019-04-04T13:52:46.648Z,94002.66
2019-04-04T13:55:12.835Z,94005.98
2019-04-04T13:57:39.571Z,94002.95
2019-04-04T14:00:08.093Z,94004.54
2019-04-04T14:02:34.469Z,93994.70
2019-04-04T14:05:09.792Z,94004.27
2019-04-04T14:07:29.916Z,93994.17
2019-04-04T14:09:56.167Z,93998.96
2019-04-04T14:12:22.384Z,94001.87
2019-04-04T14:14:48.554Z,93989.06
2019-04-04T14:17:14.821Z,93981.92
2019-04-04T14:19:41.044Z,93987.25
2019-04-04T14:22:07.243Z,93972.97
2019-04-04T14:24:33.570Z,93975.41
2019-04-04T14:26:59.755Z,93976.32
2019-04-04T14:29:27.654Z,93972.94
2019-04-04T14:31:54.019Z,93971.83
2019-04-04T14:34:20.241Z,93973.10
2019-04-04T14:36:46.430Z,93967.59
2019-04-04T14:39:12.700Z,93966.88
2019-04-04T14:41:39.064Z,93974.91
2019-04-04T14:44:05.234Z,93977.48
2019-04-04T14:46:31.450Z,93978.00
2019-04-04T14:48:57.552Z,93974.48
2019-04-04T14:51:23.757Z,93972.27
2019-04-04T14:53:50.014Z,93977.55
2019-04-04T14:56:16.249Z,93978.41
2019-04-04T14:58:42.385Z,93972.63
2019-04-04T15:01:08.549Z,93965.91
2019-04-04T15:03:34.805Z,93973.95
2019-04-04T15:06:01.072Z,93980.11
2019-04-04T15:08:27.241Z,93976.95
2019-04-04T15:10:53.574Z,93978.18
2019-04-04T15:13:20.052Z,93984.20
2019-04-04T15:16:11.781Z,93974.36
2019-04-04T15:18:37.976Z,93981.66
2019-04-04T15:21:05.790Z,93981.33
2019-04-04T15:23:32.087Z,93982.14
2019-04-04T15:25:58.429Z,93989.23
2019-04-04T15:28:26.094Z,93990.06
2019-04-04T15:30:52.614Z,93985.27
2019-04-04T15:33:18.861Z,93987.66
2019-04-04T15:35:45.062Z,93989.66
2019-04-04T15:38:11.245Z,93989.50
2019-04-04T15:40:37.527Z,93990.32
2019-04-04T15:43:03.792Z,93991.92
2019-04-04T15:45:30.083Z,93999.09
2019-04-04T15:47:56.292Z,93999.70
2019-04-04T15:50:22.390Z,94000.31
2019-04-04T15:52:48.686Z,94000.01
2019-04-04T15:55:14.789Z,94004.09
2019-04-04T15:57:41.002Z,94004.31
2019-04-04T16:00:08.175Z,94000.30
2019-04-04T16:02:34.423Z,93999.66
2019-04-04T16:05:00.701Z,94007.09
2019-04-04T16:07:26.996Z,94005.15
2019-04-04T16:09:53.110Z,94012.24
2019-04-04T16:12:19.465Z,94010.58
2019-04-04T16:14:45.710Z,94016.05
2019-04-04T16:17:12.167Z,94018.90
2019-04-04T16:19:38.443Z,94022.53
2019-04-04T16:22:04.645Z,94018.09
2019-04-04T16:24:30.806Z,94021.66
2019-04-04T16:26:57.029Z,94026.58
2019-04-04T16:29:23.208Z,94024.49
2019-04-04T16:31:49.435Z,94025.07
2019-04-04T16:34:15.547Z,94032.08
2019-04-04T16:36:41.866Z,94030.81
2019-04-04T16:39:08.070Z,94030.81
2019-04-04T16:41:34.271Z,94041.05
2019-04-04T16:44:00.469Z,94045.05
2019-04-04T16:46:26.718Z,94045.33
2019-04-04T16:48:52.952Z,94047.48
2019-04-04T16:51:19.054Z,94045.02
2019-04-04T16:53:45.275Z,94051.70
2019-04-04T16:56:12.570Z,94055.72
2019-04-04T16:58:38.871Z,94056.77
2019-04-04T17:01:05.112Z,94065.57
2019-04-04T17:03:34.160Z,94067.64
2019-04-04T17:06:02.291Z,94063.80
2019-04-04T17:08:28.573Z,94066.92
2019-04-04T17:10:54.806Z,94069.55
2019-04-04T17:13:20.974Z,94070.78
2019-04-04T17:15:47.173Z,94076.86
2019-04-04T17:18:13.426Z,94073.83
2019-04-04T17:20:39.634Z,94079.37
2019-04-04T17:23:05.860Z,94078.78
2019-04-04T17:25:32.036Z,94078.92
2019-04-04T17:27:59.231Z,94080.09
2019-04-04T17:30:25.579Z,94083.70
2019-04-04T17:32:51.939Z,94087.34
2019-04-04T17:35:18.331Z,94079.74
2019-04-04T17:37:44.657Z,94086.27
2019-04-04T17:40:11.274Z,94087.44
2019-04-04T17:42:37.409Z,94085.67
2019-04-04T17:45:08.114Z,94097.20
2019-04-04T17:47:34.290Z,94093.30
2019-04-04T17:50:00.732Z,94089.59
2019-04-04T17:52:26.989Z,94097.48
2019-04-04T17:54:53.226Z,94093.67
2019-04-04T17:57:20.440Z,94102.16
2019-04-04T17:59:46.619Z,94098.67
2019-04-04T18:02:12.978Z,94103.03
2019-04-04T18:04:48.206Z,94104.17
2019-04-04T18:07:07.456Z,94103.75
2019-04-04T18:09:33.772Z,94108.42
2019-04-04T18:12:00.094Z,94096.41
2019-04-04T18:14:26.203Z,94108.53
2019-04-04T18:16:52.465Z,94102.66
2019-04-04T18:19:18.672Z,94112.38
2019-04-04T18:21:44.932Z,94111.52
2019-04-04T18:24:11.047Z,94114.03
2019-04-04T18:26:37.388Z,94115.30
2019-04-04T18:29:03.838Z,94122.03
2019-04-04T18:31:30.190Z,94119.56
2019-04-04T18:33:56.491Z,94122.81
2019-04-04T18:36:23.203Z,94129.97
2019-04-04T18:38:49.410Z,94127.73
2019-04-04T18:41:15.636Z,94126.64
2019-04-04T18:43:41.854Z,94139.20
2019-04-04T18:46:08.128Z,94134.58
2019-04-04T18:48:34.539Z,94145.73
2019-04-04T18:51:00.787Z,94140.09
2019-04-04T18:53:27.944Z,94147.52
2019-04-04T18:55:54.159Z,94146.97
2019-04-04T18:58:20.378Z,94153.03
2019-04-04T19:00:46.664Z,94156.16
2019-04-04T19:03:12.874Z,94162.21
2019-04-04T19:05:39.208Z,94172.57
2019-04-04T19:08:05.675Z,94187.31
2019-04-04T19:10:32.029Z,94201.47
2019-04-04T19:13:05.186Z,94197.08
2019-04-04T19:15:26.257Z,94199.75
2019-04-04T19:17:52.481Z,94202.51
2019-04-04T19:20:19.083Z,94206.69
2019-04-04T19:22:45.360Z,94208.48
2019-04-04T19:25:13.794Z,94219.79
2019-04-04T19:27:40.878Z,94218.63
2019-04-04T19:30:08.472Z,94224.17
2019-04-04T19:32:35.009Z,94233.13
2019-04-04T19:35:01.107Z,94245.89
2019-04-04T19:37:27.336Z,94244.81
2019-04-04T19:39:54.471Z,94245.94
2019-04-04T19:42:20.820Z,94245.71
2019-04-04T19:44:53.325Z,94259.88
2019-04-04T19:47:15.249Z,94262.32
2019-04-04T19:49:41.343Z,94274.20
2019-04-04T19:52:07.611Z,94269.34
2019-04-04T19:54:33.984Z,94277.17
2019-04-04T19:57:00.251Z,94292.84
2019-04-04T19:59:26.440Z,94298.20
2019-04-04T20:01:52.540Z,94298.86
2019-04-04T20:04:18.772Z,94315.78
2019-04-04T20:06:45.034Z,94312.95
2019-04-04T20:09:11.357Z,94322.99
2019-04-04T20:11:37.570Z,94334.42
2019-04-04T20:14:03.790Z,94335.34
2019-04-04T20:16:29.910Z,94338.21
2019-04-04T20:18:56.223Z,94339.38
2019-04-04T20:21:22.431Z,94342.97
2019-04-04T20:23:48.683Z,94348.90
2019-04-04T20:26:19.303Z,94342.31
2019-04-04T20:28:46.278Z,94340.72
2019-04-04T20:31:12.526Z,94343.64
2019-04-04T20:33:38.772Z,94341.73
2019-04-04T20:36:04.996Z,94345.75
2019-04-04T20:38:31.139Z,94359.61
2019-04-04T20:40:57.420Z,94367.36
2019-04-04T20:43:23.723Z,94367.77
2019-04-04T20:45:50.415Z,94376.52
2019-04-04T20:48:16.580Z,94371.61
2019-04-04T20:50:42.842Z,94375.28
2019-04-04T20:53:09.048Z,94377.22
2019-04-04T20:55:35.146Z,94383.94
2019-04-04T20:58:02.426Z,94390.67
2019-04-04T21:00:28.580Z,94398.21
2019-04-04T21:02:54.835Z,94397.63
2019-04-04T21:05:20.985Z,94402.59
2019-04-04T21:07:47.123Z,94408.21
2019-04-04T21:10:13.374Z,94413.39
2019-04-04T21:12:39.670Z,94422.77
2019-04-04T21:15:06.297Z,94417.89
2019-04-04T21:17:32.615Z,94425.22
2019-04-04T21:19:58.783Z,94432.36
2019-04-04T21:22:27.654Z,94435.92
2019-04-04T21:24:53.263Z,94451.59
2019-04-04T21:27:19.565Z,94443.36
2019-04-04T21:29:45.726Z,94445.11
2019-04-04T21:32:11.895Z,94458.63
2019-04-04T21:34:38.051Z,94457.33
2019-04-04T21:37:04.276Z,94469.13
2019-04-04T21:39:30.528Z,94474.30
2019-04-04T21:41:56.856Z,94480.91
2019-04-04T21:44:22.971Z,94479.00
2019-04-04T21:46:49.185Z,94488.05
2019-04-04T21:49:15.339Z,94479.91
2019-04-04T21:51:41.542Z,94489.76
2019-04-04T21:54:07.691Z,94499.43
2019-04-04T21:56:33.902Z,94500.33
2019-04-04T21:59:00.113Z,94499.95
2019-04-04T22:01:26.274Z,94503.29
2019-04-04T22:03:53.597Z,94501.97
2019-04-04T22:06:19.772Z,94505.84
2019-04-04T22:08:45.966Z,94507.36
2019-04-04T22:11:12.183Z,94504.31
2019-04-04T22:13:38.510Z,94502.27
2019-04-04T22:16:05.119Z,94507.25
2019-04-04T22:18:31.337Z,94506.96
2019-04-04T22:20:57.481Z,94509.80
2019-04-04T22:23:23.737Z,94512.95
2019-04-04T22:25:49.941Z,94512.45
2019-04-04T22:28:16.264Z,94512.30
2019-04-04T22:30:42.977Z,94525.30
2019-04-04T22:33:09.063Z,94523.26
2019-04-04T22:35:35.260Z,94526.80
2019-04-04T22:38:01.567Z,94520.69
2019-04-04T22:40:27.791Z,94524.03
2019-04-04T22:42:53.997Z,94526.15
2019-04-04T22:45:20.186Z,94524.43
2019-04-04T22:47:46.357Z,94527.14
2019-04-04T22:50:12.842Z,94532.42
2019-04-04T22:52:39.095Z,94535.75
2019-04-04T22:55:05.975Z,94531.00
2019-04-04T22:57:32.239Z,94525.09
2019-04-04T22:59:58.493Z,94531.59
2019-04-04T23:02:25.101Z,94547.20
2019-04-04T23:04:51.218Z,94535.80
2019-04-04T23:07:17.451Z,94546.04
2019-04-04T23:09:43.624Z,94548.58
2019-04-04T23:12:09.838Z,94549.80
2019-04-04T23:14:47.525Z,94564.81
2019-04-04T23:17:04.041Z,94567.26
2019-04-04T23:19:30.209Z,94567.34
2019-04-04T23:21:56.427Z,94559.81
2019-04-04T23:24:22.540Z,94552.29
2019-04-04T23:26:48.787Z,94546.57
2019-04-04T23:29:14.989Z,94550.34
2019-04-04T23:31:41.109Z,94549.65
2019-04-04T23:34:07.297Z,94546.18
2019-04-04T23:36:35.269Z,94549.26
2019-04-04T23:39:01.703Z,94543.16
2019-04-04T23:41:29.707Z,94549.13
2019-04-04T23:43:55.911Z,94547.06
2019-04-04T23:46:22.135Z,94550.34
2019-04-04T23:48:48.305Z,94544.03
2019-04-04T23:51:14.475Z,94545.40
2019-04-04T23:53:40.645Z,94548.04
2019-04-04T23:56:06.806Z,94546.91
2019-04-04T23:58:33.088Z,94551.80
